sensor_id;sensor_type;location;lat;lon;timestamp;P1;durP1;ratioP1;P2;durP2;ratioP2
74080;SDS011;62438;52.228;6.864;2023-03-08T00:00:26;24.63;;;11.82;;
74080;SDS011;62438;52.228;6.864;2023-03-08T00:02:26;17.60;;;8.75;;
74080;SDS011;62438;52.228;6.864;2023-03-08T00:04:27;16.80;;;7.72;;
74080;SDS011;62438;52.228;6.864;2023-03-08T00:06:27;16.58;;;7.72;;
74080;SDS011;62438;52.228;6.864;2023-03-08T00:08:28;19.10;;;7.90;;
74080;SDS011;62438;52.228;6.864;2023-03-08T00:10:28;21.25;;;8.27;;
74080;SDS011;62438;52.228;6.864;2023-03-08T00:12:28;20.17;;;6.97;;
74080;SDS011;62438;52.228;6.864;2023-03-08T00:14:29;17.30;;;7.70;;
74080;SDS011;62438;52.228;6.864;2023-03-08T00:16:29;20.05;;;8.38;;
74080;SDS011;62438;52.228;6.864;2023-03-08T00:18:30;18.60;;;8.32;;
74080;SDS011;62438;52.228;6.864;2023-03-08T00:20:31;24.15;;;10.75;;
74080;SDS011;62438;52.228;6.864;2023-03-08T00:22:35;21.33;;;9.00;;
74080;SDS011;62438;52.228;6.864;2023-03-08T00:24:37;25.70;;;9.68;;
74080;SDS011;62438;52.228;6.864;2023-03-08T00:26:37;21.20;;;8.80;;
74080;SDS011;62438;52.228;6.864;2023-03-08T00:28:38;24.75;;;9.50;;
74080;SDS011;62438;52.228;6.864;2023-03-08T00:30:38;20.05;;;8.27;;
74080;SDS011;62438;52.228;6.864;2023-03-08T00:32:39;19.17;;;8.55;;
74080;SDS011;62438;52.228;6.864;2023-03-08T00:34:39;22.55;;;8.43;;
74080;SDS011;62438;52.228;6.864;2023-03-08T00:36:45;18.02;;;8.32;;
74080;SDS011;62438;52.228;6.864;2023-03-08T00:38:46;25.52;;;9.00;;
74080;SDS011;62438;52.228;6.864;2023-03-08T00:40:47;19.40;;;8.50;;
74080;SDS011;62438;52.228;6.864;2023-03-08T00:42:48;26.75;;;10.50;;
74080;SDS011;62438;52.228;6.864;2023-03-08T00:44:48;22.92;;;9.43;;
74080;SDS011;62438;52.228;6.864;2023-03-08T00:46:49;23.13;;;9.88;;
74080;SDS011;62438;52.228;6.864;2023-03-08T00:48:49;26.65;;;10.35;;
74080;SDS011;62438;52.228;6.864;2023-03-08T00:50:50;26.27;;;10.07;;
74080;SDS011;62438;52.228;6.864;2023-03-08T00:52:50;29.48;;;10.93;;
74080;SDS011;62438;52.228;6.864;2023-03-08T00:54:51;21.33;;;9.50;;
74080;SDS011;62438;52.228;6.864;2023-03-08T00:56:51;19.52;;;8.32;;
74080;SDS011;62438;52.228;6.864;2023-03-08T00:58:52;20.77;;;9.07;;
74080;SDS011;62438;52.228;6.864;2023-03-08T01:00:52;23.20;;;9.90;;
74080;SDS011;62438;52.228;6.864;2023-03-08T01:02:53;18.92;;;8.90;;
74080;SDS011;62438;52.228;6.864;2023-03-08T01:04:55;23.20;;;9.98;;
74080;SDS011;62438;52.228;6.864;2023-03-08T01:06:56;21.67;;;9.63;;
74080;SDS011;62438;52.228;6.864;2023-03-08T01:08:56;20.63;;;9.73;;
74080;SDS011;62438;52.228;6.864;2023-03-08T01:10:57;22.05;;;10.20;;
74080;SDS011;62438;52.228;6.864;2023-03-08T01:12:58;24.35;;;10.35;;
74080;SDS011;62438;52.228;6.864;2023-03-08T01:14:59;20.65;;;8.98;;
74080;SDS011;62438;52.228;6.864;2023-03-08T01:16:59;24.77;;;10.23;;
74080;SDS011;62438;52.228;6.864;2023-03-08T01:19:00;21.50;;;9.48;;
74080;SDS011;62438;52.228;6.864;2023-03-08T01:21:02;25.85;;;11.73;;
74080;SDS011;62438;52.228;6.864;2023-03-08T01:23:03;30.45;;;10.43;;
74080;SDS011;62438;52.228;6.864;2023-03-08T01:25:04;27.45;;;11.00;;
74080;SDS011;62438;52.228;6.864;2023-03-08T01:27:05;29.83;;;11.35;;
74080;SDS011;62438;52.228;6.864;2023-03-08T01:29:05;28.25;;;11.82;;
74080;SDS011;62438;52.228;6.864;2023-03-08T01:31:07;25.15;;;10.73;;
74080;SDS011;62438;52.228;6.864;2023-03-08T01:33:15;24.65;;;10.77;;
74080;SDS011;62438;52.228;6.864;2023-03-08T01:35:15;28.00;;;11.68;;
74080;SDS011;62438;52.228;6.864;2023-03-08T01:37:16;26.98;;;12.32;;
74080;SDS011;62438;52.228;6.864;2023-03-08T01:39:16;27.08;;;10.70;;
74080;SDS011;62438;52.228;6.864;2023-03-08T01:41:18;28.08;;;11.82;;
74080;SDS011;62438;52.228;6.864;2023-03-08T01:43:28;23.05;;;10.70;;
74080;SDS011;62438;52.228;6.864;2023-03-08T01:47:59;25.08;;;11.32;;
74080;SDS011;62438;52.228;6.864;2023-03-08T01:50:02;25.48;;;10.77;;
74080;SDS011;62438;52.228;6.864;2023-03-08T01:52:13;27.35;;;11.05;;
74080;SDS011;62438;52.228;6.864;2023-03-08T01:54:25;23.10;;;9.82;;
74080;SDS011;62438;52.228;6.864;2023-03-08T01:56:41;28.77;;;12.23;;
74080;SDS011;62438;52.228;6.864;2023-03-08T01:58:46;25.40;;;10.63;;
74080;SDS011;62438;52.228;6.864;2023-03-08T02:00:49;24.25;;;12.18;;
74080;SDS011;62438;52.228;6.864;2023-03-08T02:02:53;25.30;;;10.05;;
74080;SDS011;62438;52.228;6.864;2023-03-08T02:05:07;26.50;;;11.10;;
74080;SDS011;62438;52.228;6.864;2023-03-08T02:07:09;28.20;;;10.98;;
74080;SDS011;62438;52.228;6.864;2023-03-08T02:09:10;32.10;;;11.20;;
74080;SDS011;62438;52.228;6.864;2023-03-08T02:11:11;28.90;;;11.40;;
74080;SDS011;62438;52.228;6.864;2023-03-08T02:13:13;28.48;;;11.20;;
74080;SDS011;62438;52.228;6.864;2023-03-08T02:15:14;33.72;;;14.20;;
74080;SDS011;62438;52.228;6.864;2023-03-08T02:17:19;29.02;;;12.13;;
74080;SDS011;62438;52.228;6.864;2023-03-08T02:19:20;29.38;;;10.90;;
74080;SDS011;62438;52.228;6.864;2023-03-08T02:21:27;29.33;;;12.68;;
74080;SDS011;62438;52.228;6.864;2023-03-08T02:23:29;30.63;;;11.93;;
74080;SDS011;62438;52.228;6.864;2023-03-08T02:25:30;27.88;;;11.10;;
74080;SDS011;62438;52.228;6.864;2023-03-08T02:27:30;29.08;;;11.93;;
74080;SDS011;62438;52.228;6.864;2023-03-08T02:29:31;28.73;;;11.55;;
74080;SDS011;62438;52.228;6.864;2023-03-08T02:31:31;29.98;;;12.40;;
74080;SDS011;62438;52.228;6.864;2023-03-08T02:33:31;28.08;;;12.02;;
74080;SDS011;62438;52.228;6.864;2023-03-08T02:35:34;29.83;;;12.18;;
74080;SDS011;62438;52.228;6.864;2023-03-08T02:37:35;28.38;;;11.75;;
74080;SDS011;62438;52.228;6.864;2023-03-08T02:39:35;28.63;;;11.45;;
74080;SDS011;62438;52.228;6.864;2023-03-08T02:41:36;27.30;;;11.18;;
74080;SDS011;62438;52.228;6.864;2023-03-08T02:43:36;38.03;;;12.30;;
74080;SDS011;62438;52.228;6.864;2023-03-08T02:45:36;33.90;;;11.77;;
74080;SDS011;62438;52.228;6.864;2023-03-08T02:47:37;30.02;;;12.50;;
74080;SDS011;62438;52.228;6.864;2023-03-08T02:49:37;34.72;;;12.57;;
74080;SDS011;62438;52.228;6.864;2023-03-08T02:51:38;28.23;;;12.38;;
74080;SDS011;62438;52.228;6.864;2023-03-08T02:53:38;32.65;;;11.35;;
74080;SDS011;62438;52.228;6.864;2023-03-08T02:55:39;35.60;;;13.27;;
74080;SDS011;62438;52.228;6.864;2023-03-08T02:57:39;34.00;;;12.93;;
74080;SDS011;62438;52.228;6.864;2023-03-08T02:59:39;31.15;;;12.05;;
74080;SDS011;62438;52.228;6.864;2023-03-08T03:01:40;33.55;;;12.07;;
74080;SDS011;62438;52.228;6.864;2023-03-08T03:03:40;29.13;;;11.50;;
74080;SDS011;62438;52.228;6.864;2023-03-08T03:05:42;33.40;;;12.05;;
74080;SDS011;62438;52.228;6.864;2023-03-08T03:07:43;33.22;;;11.55;;
74080;SDS011;62438;52.228;6.864;2023-03-08T03:09:44;28.58;;;11.52;;
74080;SDS011;62438;52.228;6.864;2023-03-08T03:11:44;36.25;;;13.40;;
74080;SDS011;62438;52.228;6.864;2023-03-08T03:13:45;49.28;;;13.43;;
74080;SDS011;62438;52.228;6.864;2023-03-08T03:15:45;35.30;;;13.00;;
74080;SDS011;62438;52.228;6.864;2023-03-08T03:17:46;36.05;;;11.70;;
74080;SDS011;62438;52.228;6.864;2023-03-08T03:19:46;38.42;;;12.75;;
74080;SDS011;62438;52.228;6.864;2023-03-08T03:21:47;33.95;;;12.63;;
74080;SDS011;62438;52.228;6.864;2023-03-08T03:23:47;38.15;;;13.05;;
74080;SDS011;62438;52.228;6.864;2023-03-08T03:25:49;42.15;;;13.00;;
74080;SDS011;62438;52.228;6.864;2023-03-08T03:27:49;38.60;;;12.80;;
74080;SDS011;62438;52.228;6.864;2023-03-08T03:29:50;39.15;;;12.23;;
74080;SDS011;62438;52.228;6.864;2023-03-08T03:31:50;36.15;;;10.70;;
74080;SDS011;62438;52.228;6.864;2023-03-08T03:33:51;37.47;;;12.27;;
74080;SDS011;62438;52.228;6.864;2023-03-08T03:35:51;35.50;;;11.52;;
74080;SDS011;62438;52.228;6.864;2023-03-08T03:37:52;39.95;;;12.40;;
74080;SDS011;62438;52.228;6.864;2023-03-08T03:39:52;39.97;;;12.82;;
74080;SDS011;62438;52.228;6.864;2023-03-08T03:41:53;40.92;;;13.70;;
74080;SDS011;62438;52.228;6.864;2023-03-08T03:43:53;37.63;;;11.88;;
74080;SDS011;62438;52.228;6.864;2023-03-08T03:45:54;47.15;;;14.23;;
74080;SDS011;62438;52.228;6.864;2023-03-08T03:47:56;41.83;;;12.98;;
74080;SDS011;62438;52.228;6.864;2023-03-08T03:49:56;39.15;;;11.23;;
74080;SDS011;62438;52.228;6.864;2023-03-08T03:51:57;41.60;;;13.23;;
74080;SDS011;62438;52.228;6.864;2023-03-08T03:53:57;38.78;;;13.07;;
74080;SDS011;62438;52.228;6.864;2023-03-08T03:56:08;39.97;;;11.82;;
74080;SDS011;62438;52.228;6.864;2023-03-08T03:58:11;39.75;;;11.55;;
74080;SDS011;62438;52.228;6.864;2023-03-08T04:00:12;43.67;;;13.10;;
74080;SDS011;62438;52.228;6.864;2023-03-08T04:02:12;43.33;;;11.88;;
74080;SDS011;62438;52.228;6.864;2023-03-08T04:04:13;38.50;;;11.93;;
74080;SDS011;62438;52.228;6.864;2023-03-08T04:06:14;43.03;;;12.80;;
74080;SDS011;62438;52.228;6.864;2023-03-08T04:08:16;38.47;;;12.65;;
74080;SDS011;62438;52.228;6.864;2023-03-08T04:10:17;36.28;;;12.40;;
74080;SDS011;62438;52.228;6.864;2023-03-08T04:12:17;36.33;;;11.50;;
74080;SDS011;62438;52.228;6.864;2023-03-08T04:14:19;36.08;;;11.52;;
74080;SDS011;62438;52.228;6.864;2023-03-08T04:16:23;39.17;;;11.45;;
74080;SDS011;62438;52.228;6.864;2023-03-08T04:18:26;33.75;;;11.25;;
74080;SDS011;62438;52.228;6.864;2023-03-08T04:20:26;42.03;;;12.00;;
74080;SDS011;62438;52.228;6.864;2023-03-08T04:22:26;43.15;;;11.65;;
74080;SDS011;62438;52.228;6.864;2023-03-08T04:24:27;37.67;;;11.75;;
74080;SDS011;62438;52.228;6.864;2023-03-08T04:26:27;37.53;;;11.35;;
74080;SDS011;62438;52.228;6.864;2023-03-08T04:28:28;36.13;;;11.15;;
74080;SDS011;62438;52.228;6.864;2023-03-08T04:30:29;36.25;;;11.30;;
74080;SDS011;62438;52.228;6.864;2023-03-08T04:32:32;32.25;;;12.02;;
74080;SDS011;62438;52.228;6.864;2023-03-08T04:34:33;43.15;;;11.63;;
74080;SDS011;62438;52.228;6.864;2023-03-08T04:36:35;37.60;;;12.25;;
74080;SDS011;62438;52.228;6.864;2023-03-08T04:38:36;38.53;;;11.85;;
74080;SDS011;62438;52.228;6.864;2023-03-08T04:40:37;42.30;;;13.38;;
74080;SDS011;62438;52.228;6.864;2023-03-08T04:44:58;33.15;;;9.23;;
74080;SDS011;62438;52.228;6.864;2023-03-08T04:46:58;38.83;;;10.63;;
74080;SDS011;62438;52.228;6.864;2023-03-08T04:48:59;28.52;;;9.25;;
74080;SDS011;62438;52.228;6.864;2023-03-08T04:51:00;31.75;;;10.52;;
74080;SDS011;62438;52.228;6.864;2023-03-08T04:53:02;37.35;;;10.95;;
74080;SDS011;62438;52.228;6.864;2023-03-08T04:55:02;37.83;;;10.85;;
74080;SDS011;62438;52.228;6.864;2023-03-08T04:57:03;30.65;;;10.85;;
74080;SDS011;62438;52.228;6.864;2023-03-08T04:59:03;36.20;;;11.55;;
74080;SDS011;62438;52.228;6.864;2023-03-08T05:03:33;38.90;;;11.48;;
74080;SDS011;62438;52.228;6.864;2023-03-08T05:05:34;34.85;;;10.88;;
74080;SDS011;62438;52.228;6.864;2023-03-08T05:07:35;33.88;;;10.77;;
74080;SDS011;62438;52.228;6.864;2023-03-08T05:09:35;35.80;;;11.20;;
74080;SDS011;62438;52.228;6.864;2023-03-08T05:11:36;31.05;;;10.68;;
74080;SDS011;62438;52.228;6.864;2023-03-08T05:13:37;33.92;;;11.25;;
74080;SDS011;62438;52.228;6.864;2023-03-08T05:15:38;32.03;;;11.88;;
74080;SDS011;62438;52.228;6.864;2023-03-08T05:17:38;40.05;;;12.18;;
74080;SDS011;62438;52.228;6.864;2023-03-08T05:19:38;33.15;;;11.65;;
74080;SDS011;62438;52.228;6.864;2023-03-08T05:21:39;35.83;;;12.27;;
74080;SDS011;62438;52.228;6.864;2023-03-08T05:23:39;30.98;;;10.55;;
74080;SDS011;62438;52.228;6.864;2023-03-08T05:25:40;35.90;;;11.75;;
74080;SDS011;62438;52.228;6.864;2023-03-08T05:27:42;33.47;;;10.52;;
74080;SDS011;62438;52.228;6.864;2023-03-08T05:29:43;31.45;;;10.38;;
74080;SDS011;62438;52.228;6.864;2023-03-08T05:31:43;32.67;;;10.45;;
74080;SDS011;62438;52.228;6.864;2023-03-08T05:33:46;32.72;;;10.50;;
74080;SDS011;62438;52.228;6.864;2023-03-08T05:35:52;33.03;;;10.27;;
74080;SDS011;62438;52.228;6.864;2023-03-08T05:37:53;34.95;;;10.38;;
74080;SDS011;62438;52.228;6.864;2023-03-08T05:39:53;36.83;;;12.52;;
74080;SDS011;62438;52.228;6.864;2023-03-08T05:41:54;29.23;;;10.77;;
74080;SDS011;62438;52.228;6.864;2023-03-08T05:43:55;30.55;;;10.38;;
74080;SDS011;62438;52.228;6.864;2023-03-08T05:45:58;33.28;;;10.20;;
74080;SDS011;62438;52.228;6.864;2023-03-08T05:48:03;31.25;;;11.07;;
74080;SDS011;62438;52.228;6.864;2023-03-08T05:50:03;30.45;;;10.98;;
74080;SDS011;62438;52.228;6.864;2023-03-08T05:52:04;36.22;;;11.10;;
74080;SDS011;62438;52.228;6.864;2023-03-08T05:54:05;33.28;;;10.75;;
74080;SDS011;62438;52.228;6.864;2023-03-08T05:56:10;32.83;;;10.57;;
74080;SDS011;62438;52.228;6.864;2023-03-08T05:58:15;35.97;;;11.32;;
74080;SDS011;62438;52.228;6.864;2023-03-08T06:00:15;34.08;;;9.65;;
74080;SDS011;62438;52.228;6.864;2023-03-08T06:02:16;30.45;;;10.60;;
74080;SDS011;62438;52.228;6.864;2023-03-08T06:04:16;31.73;;;9.70;;
74080;SDS011;62438;52.228;6.864;2023-03-08T06:06:17;32.60;;;10.40;;
74080;SDS011;62438;52.228;6.864;2023-03-08T06:08:19;28.77;;;9.93;;
74080;SDS011;62438;52.228;6.864;2023-03-08T06:10:19;32.35;;;10.05;;
74080;SDS011;62438;52.228;6.864;2023-03-08T06:12:20;25.98;;;9.25;;
74080;SDS011;62438;52.228;6.864;2023-03-08T06:14:20;28.85;;;10.77;;
74080;SDS011;62438;52.228;6.864;2023-03-08T06:16:21;32.78;;;10.55;;
74080;SDS011;62438;52.228;6.864;2023-03-08T06:18:21;26.90;;;11.05;;
74080;SDS011;62438;52.228;6.864;2023-03-08T06:20:22;24.38;;;8.88;;
74080;SDS011;62438;52.228;6.864;2023-03-08T06:22:23;28.27;;;10.02;;
74080;SDS011;62438;52.228;6.864;2023-03-08T06:24:23;27.65;;;10.00;;
74080;SDS011;62438;52.228;6.864;2023-03-08T06:26:24;26.95;;;10.48;;
74080;SDS011;62438;52.228;6.864;2023-03-08T06:28:25;31.92;;;9.95;;
74080;SDS011;62438;52.228;6.864;2023-03-08T06:30:26;28.85;;;10.07;;
74080;SDS011;62438;52.228;6.864;2023-03-08T06:32:26;29.55;;;9.85;;
74080;SDS011;62438;52.228;6.864;2023-03-08T06:34:27;28.90;;;11.32;;
74080;SDS011;62438;52.228;6.864;2023-03-08T06:36:27;30.90;;;10.43;;
74080;SDS011;62438;52.228;6.864;2023-03-08T06:38:28;29.13;;;10.15;;
74080;SDS011;62438;52.228;6.864;2023-03-08T06:40:30;24.33;;;9.60;;
74080;SDS011;62438;52.228;6.864;2023-03-08T06:42:30;35.38;;;12.70;;
74080;SDS011;62438;52.228;6.864;2023-03-08T06:44:31;35.92;;;11.80;;
74080;SDS011;62438;52.228;6.864;2023-03-08T06:46:31;32.85;;;11.52;;
74080;SDS011;62438;52.228;6.864;2023-03-08T06:48:35;36.08;;;11.77;;
74080;SDS011;62438;52.228;6.864;2023-03-08T06:50:35;29.60;;;11.40;;
74080;SDS011;62438;52.228;6.864;2023-03-08T06:52:36;37.17;;;11.52;;
74080;SDS011;62438;52.228;6.864;2023-03-08T06:54:37;30.83;;;11.48;;
74080;SDS011;62438;52.228;6.864;2023-03-08T06:56:37;34.05;;;11.82;;
74080;SDS011;62438;52.228;6.864;2023-03-08T06:58:38;32.33;;;10.90;;
74080;SDS011;62438;52.228;6.864;2023-03-08T07:00:38;32.60;;;11.18;;
74080;SDS011;62438;52.228;6.864;2023-03-08T07:02:38;28.95;;;10.05;;
74080;SDS011;62438;52.228;6.864;2023-03-08T07:04:39;30.52;;;10.73;;
74080;SDS011;62438;52.228;6.864;2023-03-08T07:06:39;28.90;;;10.52;;
74080;SDS011;62438;52.228;6.864;2023-03-08T07:08:40;31.52;;;10.23;;
74080;SDS011;62438;52.228;6.864;2023-03-08T07:10:40;27.15;;;10.10;;
74080;SDS011;62438;52.228;6.864;2023-03-08T07:12:41;32.45;;;11.20;;
74080;SDS011;62438;52.228;6.864;2023-03-08T07:14:45;27.10;;;10.32;;
74080;SDS011;62438;52.228;6.864;2023-03-08T07:16:46;34.22;;;11.98;;
74080;SDS011;62438;52.228;6.864;2023-03-08T07:18:47;35.33;;;12.65;;
74080;SDS011;62438;52.228;6.864;2023-03-08T07:20:51;31.33;;;11.23;;
74080;SDS011;62438;52.228;6.864;2023-03-08T07:22:52;27.58;;;9.73;;
74080;SDS011;62438;52.228;6.864;2023-03-08T07:24:53;32.70;;;10.60;;
74080;SDS011;62438;52.228;6.864;2023-03-08T07:26:53;33.92;;;10.52;;
74080;SDS011;62438;52.228;6.864;2023-03-08T07:28:54;33.60;;;10.35;;
74080;SDS011;62438;52.228;6.864;2023-03-08T07:30:54;32.92;;;11.35;;
74080;SDS011;62438;52.228;6.864;2023-03-08T07:32:55;30.25;;;10.38;;
74080;SDS011;62438;52.228;6.864;2023-03-08T07:34:55;28.65;;;10.80;;
74080;SDS011;62438;52.228;6.864;2023-03-08T07:36:56;26.83;;;10.43;;
74080;SDS011;62438;52.228;6.864;2023-03-08T07:38:57;29.20;;;9.73;;
74080;SDS011;62438;52.228;6.864;2023-03-08T07:40:57;29.52;;;10.50;;
74080;SDS011;62438;52.228;6.864;2023-03-08T07:42:58;26.83;;;9.07;;
74080;SDS011;62438;52.228;6.864;2023-03-08T07:44:59;30.25;;;10.45;;
74080;SDS011;62438;52.228;6.864;2023-03-08T07:47:00;31.67;;;9.73;;
74080;SDS011;62438;52.228;6.864;2023-03-08T07:49:00;34.33;;;11.02;;
74080;SDS011;62438;52.228;6.864;2023-03-08T07:51:04;37.30;;;12.93;;
74080;SDS011;62438;52.228;6.864;2023-03-08T07:53:07;33.42;;;10.68;;
74080;SDS011;62438;52.228;6.864;2023-03-08T07:55:08;29.88;;;10.68;;
74080;SDS011;62438;52.228;6.864;2023-03-08T07:57:11;32.13;;;11.73;;
74080;SDS011;62438;52.228;6.864;2023-03-08T08:01:13;25.27;;;8.27;;
74080;SDS011;62438;52.228;6.864;2023-03-08T08:03:14;27.95;;;8.75;;
74080;SDS011;62438;52.228;6.864;2023-03-08T08:05:14;25.90;;;9.35;;
74080;SDS011;62438;52.228;6.864;2023-03-08T08:07:15;22.95;;;8.15;;
74080;SDS011;62438;52.228;6.864;2023-03-08T08:09:16;25.92;;;9.63;;
74080;SDS011;62438;52.228;6.864;2023-03-08T08:11:17;24.77;;;9.10;;
74080;SDS011;62438;52.228;6.864;2023-03-08T08:13:20;23.98;;;8.68;;
74080;SDS011;62438;52.228;6.864;2023-03-08T08:15:21;23.13;;;8.15;;
74080;SDS011;62438;52.228;6.864;2023-03-08T08:19:24;22.33;;;8.77;;
74080;SDS011;62438;52.228;6.864;2023-03-08T08:21:25;23.15;;;9.52;;
74080;SDS011;62438;52.228;6.864;2023-03-08T08:23:25;25.98;;;9.85;;
74080;SDS011;62438;52.228;6.864;2023-03-08T08:25:26;30.95;;;11.10;;
74080;SDS011;62438;52.228;6.864;2023-03-08T08:27:26;26.35;;;8.93;;
74080;SDS011;62438;52.228;6.864;2023-03-08T08:29:27;24.38;;;8.60;;
74080;SDS011;62438;52.228;6.864;2023-03-08T08:31:28;24.90;;;8.88;;
74080;SDS011;62438;52.228;6.864;2023-03-08T08:33:30;22.73;;;8.60;;
74080;SDS011;62438;52.228;6.864;2023-03-08T08:35:31;25.80;;;9.27;;
74080;SDS011;62438;52.228;6.864;2023-03-08T08:37:32;30.98;;;10.07;;
74080;SDS011;62438;52.228;6.864;2023-03-08T08:39:33;26.27;;;9.70;;
74080;SDS011;62438;52.228;6.864;2023-03-08T08:41:33;20.75;;;7.78;;
74080;SDS011;62438;52.228;6.864;2023-03-08T08:43:34;22.17;;;7.93;;
74080;SDS011;62438;52.228;6.864;2023-03-08T08:45:35;23.60;;;9.52;;
74080;SDS011;62438;52.228;6.864;2023-03-08T08:47:35;23.55;;;8.38;;
74080;SDS011;62438;52.228;6.864;2023-03-08T08:49:36;22.92;;;8.68;;
74080;SDS011;62438;52.228;6.864;2023-03-08T08:51:36;22.52;;;8.65;;
74080;SDS011;62438;52.228;6.864;2023-03-08T08:53:36;22.88;;;8.73;;
74080;SDS011;62438;52.228;6.864;2023-03-08T08:55:37;26.88;;;9.35;;
74080;SDS011;62438;52.228;6.864;2023-03-08T08:57:37;23.90;;;8.82;;
74080;SDS011;62438;52.228;6.864;2023-03-08T08:59:38;27.13;;;9.05;;
74080;SDS011;62438;52.228;6.864;2023-03-08T09:01:38;20.55;;;7.53;;
74080;SDS011;62438;52.228;6.864;2023-03-08T09:03:46;24.17;;;8.77;;
74080;SDS011;62438;52.228;6.864;2023-03-08T09:05:47;28.48;;;9.23;;
74080;SDS011;62438;52.228;6.864;2023-03-08T09:07:47;28.58;;;9.27;;
74080;SDS011;62438;52.228;6.864;2023-03-08T09:09:48;27.63;;;9.65;;
74080;SDS011;62438;52.228;6.864;2023-03-08T09:11:49;19.33;;;8.07;;
74080;SDS011;62438;52.228;6.864;2023-03-08T09:13:49;24.95;;;8.48;;
74080;SDS011;62438;52.228;6.864;2023-03-08T09:15:50;26.98;;;10.48;;
74080;SDS011;62438;52.228;6.864;2023-03-08T09:17:50;24.15;;;8.82;;
74080;SDS011;62438;52.228;6.864;2023-03-08T09:19:51;23.42;;;9.57;;
74080;SDS011;62438;52.228;6.864;2023-03-08T09:21:51;25.70;;;9.75;;
74080;SDS011;62438;52.228;6.864;2023-03-08T09:23:52;21.67;;;8.02;;
74080;SDS011;62438;52.228;6.864;2023-03-08T09:25:54;29.17;;;9.80;;
74080;SDS011;62438;52.228;6.864;2023-03-08T09:27:55;25.58;;;9.00;;
74080;SDS011;62438;52.228;6.864;2023-03-08T09:29:56;24.10;;;8.88;;
74080;SDS011;62438;52.228;6.864;2023-03-08T09:31:58;25.63;;;9.23;;
74080;SDS011;62438;52.228;6.864;2023-03-08T09:33:59;23.83;;;9.15;;
74080;SDS011;62438;52.228;6.864;2023-03-08T09:36:03;26.92;;;9.18;;
74080;SDS011;62438;52.228;6.864;2023-03-08T09:38:04;29.85;;;9.93;;
74080;SDS011;62438;52.228;6.864;2023-03-08T09:40:04;25.25;;;9.52;;
74080;SDS011;62438;52.228;6.864;2023-03-08T09:42:15;26.30;;;10.40;;
74080;SDS011;62438;52.228;6.864;2023-03-08T09:44:34;26.20;;;10.82;;
74080;SDS011;62438;52.228;6.864;2023-03-08T09:49:30;31.92;;;11.07;;
74080;SDS011;62438;52.228;6.864;2023-03-08T09:51:35;28.05;;;11.40;;
74080;SDS011;62438;52.228;6.864;2023-03-08T09:53:41;28.23;;;10.88;;
74080;SDS011;62438;52.228;6.864;2023-03-08T09:55:57;29.98;;;11.35;;
74080;SDS011;62438;52.228;6.864;2023-03-08T09:58:05;29.55;;;11.07;;
74080;SDS011;62438;52.228;6.864;2023-03-08T10:00:19;28.35;;;11.13;;
74080;SDS011;62438;52.228;6.864;2023-03-08T10:03:10;28.83;;;11.15;;
74080;SDS011;62438;52.228;6.864;2023-03-08T10:07:18;29.23;;;10.85;;
74080;SDS011;62438;52.228;6.864;2023-03-08T10:09:26;36.17;;;11.82;;
74080;SDS011;62438;52.228;6.864;2023-03-08T10:11:32;31.88;;;12.90;;
74080;SDS011;62438;52.228;6.864;2023-03-08T10:13:41;37.58;;;12.98;;
74080;SDS011;62438;52.228;6.864;2023-03-08T10:15:49;29.77;;;10.98;;
74080;SDS011;62438;52.228;6.864;2023-03-08T10:17:56;33.67;;;12.00;;
74080;SDS011;62438;52.228;6.864;2023-03-08T10:20:06;38.88;;;13.93;;
74080;SDS011;62438;52.228;6.864;2023-03-08T10:22:24;41.10;;;13.52;;
74080;SDS011;62438;52.228;6.864;2023-03-08T10:24:28;42.28;;;15.07;;
74080;SDS011;62438;52.228;6.864;2023-03-08T10:26:36;38.53;;;13.50;;
74080;SDS011;62438;52.228;6.864;2023-03-08T10:28:37;42.40;;;14.68;;
74080;SDS011;62438;52.228;6.864;2023-03-08T10:30:58;45.75;;;15.80;;
74080;SDS011;62438;52.228;6.864;2023-03-08T10:33:02;38.10;;;13.73;;
74080;SDS011;62438;52.228;6.864;2023-03-08T10:35:06;34.42;;;12.05;;
74080;SDS011;62438;52.228;6.864;2023-03-08T10:37:07;42.85;;;14.35;;
74080;SDS011;62438;52.228;6.864;2023-03-08T10:39:09;43.13;;;16.10;;
74080;SDS011;62438;52.228;6.864;2023-03-08T10:41:13;40.28;;;13.40;;
74080;SDS011;62438;52.228;6.864;2023-03-08T10:43:24;36.47;;;13.10;;
74080;SDS011;62438;52.228;6.864;2023-03-08T10:45:27;37.53;;;15.40;;
74080;SDS011;62438;52.228;6.864;2023-03-08T10:47:35;36.83;;;13.48;;
74080;SDS011;62438;52.228;6.864;2023-03-08T10:49:35;32.08;;;12.05;;
74080;SDS011;62438;52.228;6.864;2023-03-08T10:51:36;34.78;;;12.35;;
74080;SDS011;62438;52.228;6.864;2023-03-08T10:53:36;33.05;;;12.50;;
74080;SDS011;62438;52.228;6.864;2023-03-08T10:55:47;31.10;;;11.55;;
74080;SDS011;62438;52.228;6.864;2023-03-08T10:59:51;26.58;;;10.77;;
74080;SDS011;62438;52.228;6.864;2023-03-08T11:01:53;32.50;;;10.80;;
74080;SDS011;62438;52.228;6.864;2023-03-08T11:06:03;26.92;;;10.23;;
74080;SDS011;62438;52.228;6.864;2023-03-08T11:08:19;25.50;;;8.77;;
74080;SDS011;62438;52.228;6.864;2023-03-08T11:10:40;22.90;;;8.13;;
74080;SDS011;62438;52.228;6.864;2023-03-08T11:12:41;24.88;;;9.30;;
74080;SDS011;62438;52.228;6.864;2023-03-08T11:14:41;27.70;;;9.98;;
74080;SDS011;62438;52.228;6.864;2023-03-08T11:17:00;24.92;;;10.13;;
74080;SDS011;62438;52.228;6.864;2023-03-08T11:26:26;23.40;;;8.88;;
74080;SDS011;62438;52.228;6.864;2023-03-08T11:28:47;18.85;;;7.65;;
74080;SDS011;62438;52.228;6.864;2023-03-08T11:35:12;24.23;;;8.43;;
74080;SDS011;62438;52.228;6.864;2023-03-08T11:40:09;23.23;;;9.63;;
74080;SDS011;62438;52.228;6.864;2023-03-08T11:42:24;23.45;;;8.93;;
74080;SDS011;62438;52.228;6.864;2023-03-08T11:47:21;21.75;;;8.43;;
74080;SDS011;62438;52.228;6.864;2023-03-08T11:49:30;24.58;;;8.65;;
74080;SDS011;62438;52.228;6.864;2023-03-08T11:56:38;21.15;;;8.35;;
74080;SDS011;62438;52.228;6.864;2023-03-08T11:58:49;18.83;;;7.93;;
74080;SDS011;62438;52.228;6.864;2023-03-08T12:00:57;19.85;;;8.35;;
74080;SDS011;62438;52.228;6.864;2023-03-08T12:03:03;20.08;;;8.45;;
74080;SDS011;62438;52.228;6.864;2023-03-08T12:05:14;23.33;;;8.60;;
74080;SDS011;62438;52.228;6.864;2023-03-08T12:09:57;25.48;;;8.57;;
74080;SDS011;62438;52.228;6.864;2023-03-08T12:12:05;21.67;;;8.60;;
74080;SDS011;62438;52.228;6.864;2023-03-08T12:14:17;22.25;;;8.32;;
74080;SDS011;62438;52.228;6.864;2023-03-08T12:16:29;21.38;;;8.73;;
74080;SDS011;62438;52.228;6.864;2023-03-08T12:18:43;23.98;;;8.30;;
74080;SDS011;62438;52.228;6.864;2023-03-08T12:20:44;22.52;;;9.52;;
74080;SDS011;62438;52.228;6.864;2023-03-08T12:28:03;19.42;;;7.82;;
74080;SDS011;62438;52.228;6.864;2023-03-08T12:30:13;17.20;;;6.38;;
74080;SDS011;62438;52.228;6.864;2023-03-08T12:32:18;19.67;;;7.22;;
74080;SDS011;62438;52.228;6.864;2023-03-08T12:34:27;23.55;;;7.60;;
74080;SDS011;62438;52.228;6.864;2023-03-08T12:36:36;15.90;;;6.90;;
74080;SDS011;62438;52.228;6.864;2023-03-08T12:38:39;19.52;;;7.95;;
74080;SDS011;62438;52.228;6.864;2023-03-08T12:40:50;17.48;;;7.47;;
74080;SDS011;62438;52.228;6.864;2023-03-08T12:43:07;19.65;;;7.63;;
74080;SDS011;62438;52.228;6.864;2023-03-08T12:45:27;22.00;;;7.60;;
74080;SDS011;62438;52.228;6.864;2023-03-08T12:51:35;14.48;;;6.65;;
74080;SDS011;62438;52.228;6.864;2023-03-08T12:53:40;13.80;;;6.03;;
74080;SDS011;62438;52.228;6.864;2023-03-08T12:55:45;19.23;;;7.13;;